LTAY Airport Information

Runway Information
Runway 06 Length 9842 ft width 148 ft
Elevation 2797 ft Threshold 0 ft Heading 59
Runway 24 Length 9842 ft Width 148 ft
Elevation 2774 ft Threshold 0 ft Heading 239
Airport Frequencies
Type APP Name MENDERES A Frequency 121.6 MHZ
Type GND Name GND Frequency 25.125 MHZ
Type TWR Name TWR Frequency 118.6 MHZ
Airport Navaids
Type TACAN Name Cardak Frequency 133300 KHZ
Type VOR-DME Name Cardak Frequency 112000 KHZ
Type NDB Name Cardak Frequency 433 KHZ
Airport Weather Information & NOTAM
ADDS - METARS form results

(2008 UTC 22 July 2018)
 
METAR text: LTAY 221950Z 32008KT CAVOK 26/11 Q1013
Conditions at: LTAY (CARDAK , TR) observed 1950 UTC 22 July 2018
Temperature: 26.0°C (79°F)
Dewpoint: 11.0°C (52°F) [RH = 39%]
Pressure (altimeter): 29.91 inches Hg (1013.0 mb)
Winds: from the NW (320 degrees) at 9 MPH (8 knots; 4.2 m/s)
Visibility: 6 or more miles (10+ km)
Ceiling: ceiling and visibility are OK
Clouds: unknown
Weather: no significant weather observed at this time